Time;durP1;ratioP1;P1;durP2;ratioP2;P2;SDS_P1;SDS_P2;PMS_P1;PMS_P2;Temp;Humidity;BMP_temperature;BMP_pressure;BME280_temperature;BME280_humidity;BME280_pressure;Samples;Min_cycle;Max_cycle;Signal;HPM_P1;HPM_P2
2023/09/29 00:02:07;;;;;;;22.90;15.60;;;;;;;11.85;100.00;99450.73;137129;1276;22267;-80
2023/09/29 00:05:14;;;;;;;26.00;15.50;;;;;;;11.86;100.00;99449.89;137255;1276;22239;-80
2023/09/29 00:08:17;;;;;;;47.00;16.40;;;;;;;11.82;100.00;99450.16;136969;1276;23043;-81
2023/09/29 00:11:20;;;;;;;120.10;24.40;;;;;;;11.79;100.00;99454.64;137107;1276;22128;-79
2023/09/29 00:14:22;;;;;;;80.10;18.10;;;;;;;11.79;100.00;99457.60;137118;1276;22260;-80
2023/09/29 00:17:25;;;;;;;72.30;19.40;;;;;;;11.84;100.00;99461.52;137129;1276;22651;-81
2023/09/29 00:20:27;;;;;;;65.70;18.90;;;;;;;11.87;100.00;99457.39;137207;1276;22507;-79
2023/09/29 00:23:30;;;;;;;37.40;17.50;;;;;;;11.82;100.00;99460.80;137126;1276;22731;-80
2023/09/29 00:26:32;;;;;;;57.50;18.70;;;;;;;11.78;100.00;99468.05;137284;1276;22124;-81
2023/09/29 00:29:34;;;;;;;30.40;19.50;;;;;;;11.79;100.00;99479.94;137260;1276;22243;-78
2023/09/29 00:32:37;;;;;;;29.90;17.70;;;;;;;11.82;100.00;99478.77;137205;1276;22214;-81
2023/09/29 00:35:40;;;;;;;33.00;17.30;;;;;;;11.75;100.00;99474.80;137080;1276;22542;-79
2023/09/29 00:38:42;;;;;;;25.30;18.10;;;;;;;11.66;100.00;99476.70;137235;1276;22191;-79
2023/09/29 00:41:45;;;;;;;23.10;18.90;;;;;;;11.61;100.00;99471.39;137230;1276;22182;-81
2023/09/29 00:44:49;;;;;;;23.00;18.50;;;;;;;11.64;100.00;99471.98;137229;1276;22253;-79
2023/09/29 00:47:51;;;;;;;31.40;18.80;;;;;;;11.66;100.00;99468.17;137298;1276;22782;-78
2023/09/29 00:50:54;;;;;;;30.00;19.50;;;;;;;11.68;100.00;99469.41;137170;1276;22613;-78
2023/09/29 00:53:57;;;;;;;22.30;18.40;;;;;;;11.70;100.00;99472.08;137274;1276;22160;-81
2023/09/29 00:56:59;;;;;;;25.40;16.70;;;;;;;11.72;100.00;99473.33;137218;1276;22507;-81
2023/09/29 01:00:14;;;;;;;25.20;17.50;;;;;;;11.69;100.00;99474.15;137204;1276;22567;-81
2023/09/29 01:03:16;;;;;;;192.90;32.00;;;;;;;11.68;100.00;99477.09;137084;1276;22220;-82
2023/09/29 01:06:19;;;;;;;29.10;19.70;;;;;;;11.65;100.00;99471.64;137205;1276;22578;-81
2023/09/29 01:09:22;;;;;;;25.50;17.10;;;;;;;11.59;100.00;99471.34;137206;1276;22997;-81
2023/09/29 01:12:25;;;;;;;27.80;14.60;;;;;;;11.53;100.00;99471.95;137225;1276;22376;-81
2023/09/29 01:15:28;;;;;;;63.50;17.00;;;;;;;11.46;100.00;99468.52;137209;1276;22423;-80
2023/09/29 01:18:31;;;;;;;37.50;16.70;;;;;;;11.43;100.00;99470.38;137256;1276;22860;-81
2023/09/29 01:21:33;;;;;;;20.50;14.80;;;;;;;11.41;100.00;99472.60;137184;1276;22218;-82
2023/09/29 01:24:36;;;;;;;20.40;15.50;;;;;;;11.38;100.00;99469.77;137212;1276;22567;-81
2023/09/29 01:27:39;;;;;;;20.00;17.70;;;;;;;11.37;100.00;99471.30;137215;1276;22569;-81
2023/09/29 01:30:43;;;;;;;28.70;17.10;;;;;;;11.39;100.00;99470.99;137148;1276;22280;-81
2023/09/29 01:33:45;;;;;;;24.60;16.90;;;;;;;11.41;100.00;99470.17;137190;1276;22097;-80
2023/09/29 01:36:48;;;;;;;25.40;16.70;;;;;;;11.39;100.00;99464.72;137206;1276;22677;-81
2023/09/29 01:39:51;;;;;;;24.70;16.00;;;;;;;11.37;100.00;99471.31;137094;1276;22166;-79
2023/09/29 01:42:53;;;;;;;20.90;17.40;;;;;;;11.35;100.00;99467.44;137123;1276;22615;-81
2023/09/29 01:45:56;;;;;;;22.50;16.20;;;;;;;11.33;100.00;99467.40;137138;1276;22197;-79
2023/09/29 01:48:58;;;;;;;252.20;33.00;;;;;;;11.31;100.00;99468.23;137163;1276;22229;-83
2023/09/29 01:52:02;;;;;;;36.20;16.50;;;;;;;11.29;100.00;99466.77;137191;1276;22301;-82
2023/09/29 01:55:08;;;;;;;19.10;16.00;;;;;;;11.25;100.00;99467.05;137016;1268;22448;-81
2023/09/29 01:58:11;;;;;;;18.20;15.00;;;;;;;11.20;100.00;99468.68;137075;1276;169666;-81
2023/09/29 02:01:14;;;;;;;23.00;15.70;;;;;;;11.18;100.00;99475.09;137225;1276;22434;-82
2023/09/29 02:04:16;;;;;;;40.50;16.80;;;;;;;11.17;100.00;99472.64;137250;1276;22892;-81
2023/09/29 02:07:19;;;;;;;22.80;17.10;;;;;;;11.17;100.00;99471.60;137246;1276;22217;-81
2023/09/29 02:10:21;;;;;;;17.90;15.70;;;;;;;11.16;100.00;99471.91;137091;1276;22212;-81
2023/09/29 02:13:24;;;;;;;26.50;16.60;;;;;;;11.10;100.00;99470.92;137177;1276;24879;-82
2023/09/29 02:16:29;;;;;;;17.60;14.90;;;;;;;11.06;100.00;99473.64;137199;1276;22305;-82
2023/09/29 02:53:17;;;;;;;25.70;18.50;;;;;;;11.07;100.00;99457.80;132497;1306;545681;-81
2023/09/29 02:56:18;;;;;;;174.80;28.70;;;;;;;11.01;100.00;99454.89;135642;1289;22667;-80
2023/09/29 02:59:20;;;;;;;22.80;17.80;;;;;;;10.99;100.00;99453.64;135850;1289;22570;-80
2023/09/29 03:02:22;;;;;;;41.80;18.00;;;;;;;10.93;100.00;99452.11;135989;1289;22278;-79
2023/09/29 03:05:23;;;;;;;30.30;17.90;;;;;;;10.88;100.00;99450.29;135526;1286;199450;-80
2023/09/29 03:08:25;;;;;;;144.50;23.70;;;;;;;10.89;100.00;99447.52;135842;1287;22546;-81
2023/09/29 03:11:26;;;;;;;34.30;18.10;;;;;;;10.90;100.00;99448.59;136387;1286;22272;-80
2023/09/29 03:14:28;;;;;;;24.70;18.60;;;;;;;10.87;100.00;99445.73;135894;1286;22306;-80
2023/09/29 03:17:30;;;;;;;30.00;18.20;;;;;;;10.84;100.00;99440.82;135712;1286;22566;-80
2023/09/29 03:20:32;;;;;;;24.20;16.20;;;;;;;10.80;100.00;99439.86;136379;1286;22277;-80
2023/09/29 03:23:33;;;;;;;23.50;17.50;;;;;;;10.76;100.00;99438.04;136202;1286;22441;-79
2023/09/29 03:26:35;;;;;;;61.80;18.70;;;;;;;10.75;100.00;99441.14;135705;1286;22443;-79
2023/09/29 03:29:36;;;;;;;35.10;19.00;;;;;;;10.77;100.00;99440.49;136118;1285;22587;-79
2023/09/29 03:32:37;;;;;;;25.70;18.30;;;;;;;10.88;100.00;99436.89;136066;1286;22269;-79
2023/09/29 03:35:38;;;;;;;26.60;19.60;;;;;;;11.26;100.00;99436.23;135798;1286;22234;-78
2023/09/29 03:38:39;;;;;;;27.40;19.60;;;;;;;11.20;100.00;99435.94;136568;1283;22147;-78
2023/09/29 03:41:40;;;;;;;35.30;19.90;;;;;;;11.10;100.00;99437.14;136594;1283;22227;-81
2023/09/29 03:44:43;;;;;;;33.30;20.20;;;;;;;11.02;100.00;99440.99;136144;1283;22274;-81
2023/09/29 03:47:46;;;;;;;283.60;37.60;;;;;;;10.98;100.00;99439.70;136088;1283;22254;-80
2023/09/29 03:50:49;;;;;;;35.80;20.80;;;;;;;11.08;100.00;99435.52;136597;1283;22484;-79
2023/09/29 03:53:50;;;;;;;51.10;20.50;;;;;;;11.10;100.00;99430.35;136570;1283;22223;-81
2023/09/29 03:56:53;;;;;;;44.80;19.70;;;;;;;11.07;100.00;99430.98;136585;1283;22265;-81
2023/09/29 03:59:54;;;;;;;60.30;21.00;;;;;;;11.01;100.00;99425.65;136573;1283;22103;-80
2023/09/29 04:02:57;;;;;;;812.90;79.10;;;;;;;11.00;100.00;99428.23;136542;1283;22193;-82
2023/09/29 04:05:58;;;;;;;87.80;27.70;;;;;;;11.06;100.00;99421.21;136549;1284;22197;-80
2023/09/29 04:08:59;;;;;;;97.30;26.60;;;;;;;11.12;100.00;99424.64;136563;1284;22098;-80
2023/09/29 04:12:01;;;;;;;83.10;26.70;;;;;;;11.15;100.00;99421.73;136512;1270;22251;-79
2023/09/29 04:15:02;;;;;;;51.30;23.90;;;;;;;11.15;100.00;99419.64;136547;1283;22351;-79
2023/09/29 04:18:03;;;;;;;32.00;22.20;;;;;;;11.16;100.00;99421.23;135998;1283;22599;-81
2023/09/29 04:21:04;;;;;;;45.00;22.40;;;;;;;11.13;100.00;99420.13;136505;1283;22337;-80
2023/09/29 04:24:06;;;;;;;80.60;21.80;;;;;;;11.12;100.00;99420.11;136185;1283;22237;-81
2023/09/29 04:27:07;;;;;;;134.70;26.20;;;;;;;11.08;100.00;99424.56;136523;1273;22942;-81
2023/09/29 04:30:08;;;;;;;54.40;22.70;;;;;;;11.07;100.00;99423.67;136472;1284;22238;-81
2023/09/29 04:33:10;;;;;;;51.20;22.50;;;;;;;11.08;100.00;99424.56;136518;1283;22239;-81
2023/09/29 04:36:11;;;;;;;100.00;26.20;;;;;;;11.10;100.00;99420.41;136509;1283;22215;-80
2023/09/29 04:39:12;;;;;;;67.30;25.00;;;;;;;11.16;100.00;99421.40;136516;1283;22352;-80
2023/09/29 04:42:14;;;;;;;138.00;28.30;;;;;;;11.21;100.00;99419.39;136511;1283;22234;-82
2023/09/29 04:45:15;;;;;;;124.40;26.80;;;;;;;11.21;100.00;99423.23;136530;1283;22257;-82
2023/09/29 04:48:16;;;;;;;30.50;22.00;;;;;;;11.23;100.00;99425.70;136542;1283;22090;-81
2023/09/29 04:51:18;;;;;;;32.40;22.20;;;;;;;11.24;100.00;99427.83;136471;1283;22262;-81
2023/09/29 04:54:19;;;;;;;232.60;33.40;;;;;;;11.28;100.00;99429.14;136228;1282;22854;-82
2023/09/29 04:57:20;;;;;;;38.50;22.30;;;;;;;11.33;100.00;99425.92;136182;1282;24712;-82
2023/09/29 05:00:21;;;;;;;33.60;21.40;;;;;;;11.34;100.00;99428.39;136439;1282;22635;-81
2023/09/29 05:03:22;;;;;;;32.30;20.00;;;;;;;11.39;100.00;99432.31;135721;1282;22240;-79
2023/09/29 05:06:24;;;;;;;175.70;31.00;;;;;;;11.43;100.00;99432.74;135777;1282;22310;-81
2023/09/29 05:09:26;;;;;;;63.70;23.90;;;;;;;11.51;100.00;99434.97;136581;1282;22248;-81
2023/09/29 05:12:28;;;;;;;195.00;32.10;;;;;;;11.60;100.00;99430.23;136349;1273;22199;-80
2023/09/29 05:15:29;;;;;;;42.20;23.70;;;;;;;11.66;100.00;99433.30;136521;1282;22627;-80
2023/09/29 05:18:30;;;;;;;84.00;26.80;;;;;;;11.73;100.00;99429.23;136307;1282;22566;-80
2023/09/29 05:21:32;;;;;;;142.60;30.00;;;;;;;11.83;100.00;99432.39;136556;1275;22232;-80
2023/09/29 05:24:33;;;;;;;56.90;24.10;;;;;;;11.96;100.00;99435.05;136571;1282;22294;-81
2023/09/29 05:27:35;;;;;;;44.80;25.10;;;;;;;12.08;100.00;99440.29;136666;1282;22218;-81
2023/09/29 05:30:36;;;;;;;42.10;23.30;;;;;;;12.22;100.00;99441.23;136618;1282;22226;-81
2023/09/29 05:33:37;;;;;;;35.60;22.50;;;;;;;12.33;100.00;99440.87;136611;1282;22233;-79
2023/09/29 05:36:38;;;;;;;31.40;22.70;;;;;;;12.44;100.00;99443.64;136357;1282;22281;-80
2023/09/29 05:39:40;;;;;;;34.90;22.60;;;;;;;12.57;100.00;99442.24;136242;1282;22239;-81
2023/09/29 05:42:43;;;;;;;39.50;22.50;;;;;;;12.71;100.00;99444.35;136604;1282;23056;-80
2023/09/29 05:45:44;;;;;;;31.20;21.70;;;;;;;12.87;100.00;99442.80;136886;1279;22168;-81
2023/09/29 05:48:46;;;;;;;38.30;22.80;;;;;;;13.02;100.00;99443.52;136846;1279;22093;-81
2023/09/29 05:51:47;;;;;;;26.10;21.00;;;;;;;13.20;100.00;99445.34;136811;1279;22212;-81
2023/09/29 05:54:48;;;;;;;28.60;21.90;;;;;;;13.40;100.00;99449.05;136820;1279;22754;-82
2023/09/29 05:57:49;;;;;;;53.40;22.70;;;;;;;13.61;100.00;99446.44;136835;1265;22088;-81
2023/09/29 06:00:51;;;;;;;34.10;21.70;;;;;;;13.77;100.00;99445.38;136797;1279;22227;-81
2023/09/29 06:03:52;;;;;;;32.00;22.30;;;;;;;13.97;100.00;99445.56;136837;1279;22222;-81
2023/09/29 06:06:53;;;;;;;1999.90;262.20;;;;;;;14.20;100.00;99447.48;136838;1279;22701;-80
2023/09/29 06:09:54;;;;;;;103.80;30.00;;;;;;;14.40;100.00;99448.84;136812;1279;22669;-81
2023/09/29 06:12:56;;;;;;;51.20;22.00;;;;;;;14.60;100.00;99447.05;136838;1276;22255;-82
2023/09/29 06:15:57;;;;;;;34.10;21.30;;;;;;;14.81;100.00;99448.05;136840;1279;22254;-83
2023/09/29 06:18:58;;;;;;;56.40;22.10;;;;;;;15.00;100.00;99449.02;136817;1279;22247;-83
2023/09/29 06:22:00;;;;;;;39.20;21.20;;;;;;;15.22;100.00;99446.11;136853;1272;22221;-82
2023/09/29 06:25:01;;;;;;;33.90;19.90;;;;;;;15.39;100.00;99448.08;136869;1279;22241;-82
2023/09/29 06:28:02;;;;;;;34.70;19.20;;;;;;;15.49;100.00;99453.54;136833;1279;22181;-82
2023/09/29 06:31:04;;;;;;;36.50;19.60;;;;;;;15.59;100.00;99453.23;136862;1279;22224;-82
2023/09/29 06:34:05;;;;;;;41.60;20.80;;;;;;;15.78;100.00;99453.27;136538;1279;22255;-83
2023/09/29 06:37:07;;;;;;;24.80;19.30;;;;;;;16.02;100.00;99456.27;136687;1277;22566;-82
2023/09/29 06:40:10;;;;;;;26.70;18.50;;;;;;;16.24;100.00;99456.41;136709;1279;22409;-82
2023/09/29 06:43:11;;;;;;;38.10;18.80;;;;;;;16.47;100.00;99457.45;136454;1279;22272;-83
2023/09/29 06:46:13;;;;;;;26.50;18.10;;;;;;;16.65;100.00;99462.36;136796;1279;22118;-83
2023/09/29 06:49:14;;;;;;;27.10;18.90;;;;;;;16.90;100.00;99467.38;136819;1279;22227;-81
2023/09/29 06:52:15;;;;;;;22.60;18.90;;;;;;;17.16;100.00;99469.91;136649;1279;22832;-81
2023/09/29 06:55:16;;;;;;;26.10;17.80;;;;;;;17.44;100.00;99470.14;136836;1279;22779;-82
2023/09/29 06:58:17;;;;;;;24.40;17.30;;;;;;;17.68;100.00;99470.36;136795;1279;22240;-81
2023/09/29 07:01:19;;;;;;;177.80;26.30;;;;;;;17.93;100.00;99471.07;136836;1279;22305;-83
2023/09/29 07:04:20;;;;;;;38.40;17.10;;;;;;;18.13;100.00;99472.31;136846;1279;22294;-82
2023/09/29 07:07:21;;;;;;;52.70;18.10;;;;;;;18.33;100.00;99474.63;136811;1264;22162;-82
2023/09/29 07:10:22;;;;;;;55.00;17.20;;;;;;;18.54;100.00;99467.55;136780;1279;22848;-81
2023/09/29 07:13:24;;;;;;;27.30;16.90;;;;;;;18.79;100.00;99472.59;136775;1279;22497;-80
2023/09/29 07:16:25;;;;;;;23.40;15.80;;;;;;;18.98;100.00;99474.31;136807;1279;22172;-81
2023/09/29 07:19:26;;;;;;;22.70;15.20;;;;;;;19.11;100.00;99469.41;136790;1279;22693;-79
2023/09/29 07:22:28;;;;;;;28.40;15.90;;;;;;;19.26;100.00;99472.05;136822;1279;22267;-79
2023/09/29 07:25:29;;;;;;;31.50;14.60;;;;;;;19.43;100.00;99474.64;136773;1279;22061;-80
2023/09/29 07:28:30;;;;;;;19.70;14.00;;;;;;;19.60;100.00;99475.48;136782;1279;22320;-80
2023/09/29 07:31:31;;;;;;;19.60;14.30;;;;;;;19.77;100.00;99474.00;136788;1279;22226;-79
2023/09/29 07:34:32;;;;;;;19.10;14.00;;;;;;;19.93;100.00;99473.58;136805;1279;22326;-80
2023/09/29 07:37:33;;;;;;;28.20;15.00;;;;;;;20.12;100.00;99476.46;136824;1279;22362;-77
2023/09/29 07:40:35;;;;;;;27.30;13.50;;;;;;;20.33;100.00;99475.39;136808;1279;22202;-82
2023/09/29 07:43:38;;;;;;;19.90;12.30;;;;;;;20.52;100.00;99479.50;136802;1272;22318;-81
2023/09/29 07:46:39;;;;;;;17.60;12.80;;;;;;;20.65;100.00;99480.14;136815;1279;22280;-79
2023/09/29 07:49:40;;;;;;;19.10;12.10;;;;;;;20.82;100.00;99483.73;136816;1279;22199;-80
2023/09/29 07:52:43;;;;;;;24.90;14.30;;;;;;;20.99;100.00;99482.16;136815;1279;22411;-82
2023/09/29 07:55:45;;;;;;;22.90;14.10;;;;;;;21.13;100.00;99475.69;136780;1279;22260;-81
2023/09/29 07:58:46;;;;;;;15.50;13.20;;;;;;;21.23;100.00;99477.96;136748;1279;22282;-80
2023/09/29 08:01:49;;;;;;;27.00;13.60;;;;;;;21.39;100.00;99476.23;136830;1279;22704;-81
2023/09/29 08:04:50;;;;;;;31.10;13.20;;;;;;;21.54;100.00;99476.95;136792;1279;22259;-81
2023/09/29 08:07:52;;;;;;;15.30;12.60;;;;;;;21.69;100.00;99472.38;136817;1279;22209;-81
2023/09/29 08:10:53;;;;;;;17.30;12.90;;;;;;;21.80;100.00;99472.84;136811;1276;22222;-80
2023/09/29 08:13:55;;;;;;;35.60;14.30;;;;;;;21.95;100.00;99472.65;136752;1270;22260;-80
2023/09/29 08:16:56;;;;;;;58.10;15.90;;;;;;;22.11;100.00;99476.70;136486;1279;22543;-82
2023/09/29 08:19:57;;;;;;;29.60;12.80;;;;;;;22.22;100.00;99472.72;136663;1277;22551;-81
2023/09/29 08:22:58;;;;;;;22.40;12.80;;;;;;;22.28;100.00;99475.20;136755;1279;22266;-81
2023/09/29 08:26:00;;;;;;;16.70;11.50;;;;;;;22.44;100.00;99470.71;136650;1279;22570;-81
2023/09/29 08:29:01;;;;;;;94.50;17.20;;;;;;;22.54;100.00;99471.54;136722;1279;22572;-80
2023/09/29 08:32:02;;;;;;;228.60;22.60;;;;;;;22.73;100.00;99474.92;136703;1279;22300;-82
2023/09/29 08:35:04;;;;;;;621.60;58.50;;;;;;;22.80;100.00;99471.73;136860;1279;22300;-81
2023/09/29 08:38:06;;;;;;;27.00;11.10;;;;;;;22.89;100.00;99472.77;136830;1279;22249;-82
2023/09/29 08:41:08;;;;;;;71.10;13.50;;;;;;;23.07;100.00;99473.28;136853;1279;22229;-81
2023/09/29 08:44:12;;;;;;;20.70;8.90;;;;;;;23.19;100.00;99473.30;136812;1279;22212;-80
2023/09/29 08:50:29;;;;;;;1999.90;533.80;;;;;;;23.46;100.00;99473.05;136832;1279;22477;-80
2023/09/29 08:53:30;;;;;;;101.00;19.10;;;;;;;23.54;100.00;99470.69;136806;1279;22401;-81
2023/09/29 08:56:32;;;;;;;17.70;10.10;;;;;;;23.61;100.00;99464.80;136831;1279;22296;-79
2023/09/29 08:59:33;;;;;;;20.70;9.50;;;;;;;23.78;100.00;99468.89;136848;1279;22342;-81
2023/09/29 09:02:34;;;;;;;16.50;9.10;;;;;;;23.91;100.00;99465.10;136775;1279;22166;-82
2023/09/29 09:05:36;;;;;;;13.90;8.70;;;;;;;24.05;100.00;99468.55;136867;1279;22172;-82
2023/09/29 09:08:37;;;;;;;44.20;9.40;;;;;;;24.16;71.67;99466.93;136832;1279;22204;-81
2023/09/29 09:11:40;;;;;;;14.20;8.80;;;;;;;24.20;63.34;99469.45;136793;1279;23053;-82
2023/09/29 09:14:41;;;;;;;157.60;18.80;;;;;;;24.24;63.99;99466.15;136846;1264;22194;-81
2023/09/29 09:17:42;;;;;;;23.50;10.00;;;;;;;24.34;63.90;99469.60;136844;1279;22336;-83
2023/09/29 09:20:43;;;;;;;16.20;9.40;;;;;;;24.43;63.51;99466.42;137242;1275;22259;-82
2023/09/29 09:23:45;;;;;;;14.10;9.30;;;;;;;24.54;62.34;99467.83;137242;1275;22192;-82
2023/09/29 09:26:46;;;;;;;18.80;8.00;;;;;;;24.53;61.96;99464.65;137158;1275;22848;-82
2023/09/29 09:29:51;;;;;;;15.00;8.90;;;;;;;24.57;62.37;99463.09;137206;1275;22347;-84
2023/09/29 09:32:52;;;;;;;30.80;9.00;;;;;;;24.71;62.23;99468.07;137074;1271;22538;-83
2023/09/29 09:36:00;;;;;;;525.50;64.80;;;;;;;24.75;61.79;99463.30;137222;1274;22918;-82
2023/09/29 09:39:03;;;;;;;228.10;28.60;;;;;;;24.82;62.79;99461.14;137292;1274;22191;-84
2023/09/29 09:42:05;;;;;;;27.70;9.70;;;;;;;24.94;62.80;99459.61;137324;1274;22091;-84
2023/09/29 09:45:11;;;;;;;28.80;11.70;;;;;;;25.02;62.02;99457.35;137274;1262;22243;-83
2023/09/29 09:48:18;;;;;;;59.00;11.80;;;;;;;25.13;61.12;99456.08;137344;1275;22972;-82
2023/09/29 09:51:19;;;;;;;33.90;10.30;;;;;;;25.23;61.13;99455.90;136854;1274;24641;-83
2023/09/29 09:54:23;;;;;;;16.90;11.00;;;;;;;25.32;60.23;99453.41;137351;1274;22176;-82
2023/09/29 09:57:24;;;;;;;867.70;88.60;;;;;;;25.43;59.94;99449.27;137102;1274;22274;-81
2023/09/29 10:00:26;;;;;;;62.90;12.10;;;;;;;25.50;59.59;99444.70;136904;1275;22527;-82
2023/09/29 10:03:27;;;;;;;19.20;9.50;;;;;;;25.59;59.61;99441.11;137292;1274;22232;-81
2023/09/29 10:06:30;;;;;;;14.90;8.00;;;;;;;25.71;57.20;99444.63;136739;1275;22795;-82
2023/09/29 10:09:31;;;;;;;28.60;8.10;;;;;;;25.78;55.87;99433.64;137139;1275;21949;-82
2023/09/29 10:12:34;;;;;;;19.40;7.40;;;;;;;25.86;55.81;99433.13;137294;1275;22208;-82
2023/09/29 10:15:36;;;;;;;21.40;7.90;;;;;;;25.99;55.31;99432.40;136937;1275;22187;-82
2023/09/29 10:18:37;;;;;;;14.50;7.40;;;;;;;26.08;54.90;99430.98;136821;1274;22585;-83
2023/09/29 10:21:38;;;;;;;12.20;6.80;;;;;;;26.10;53.71;99428.21;137224;1275;22993;-83
2023/09/29 10:24:42;;;;;;;20.80;8.20;;;;;;;26.00;54.00;99425.05;136898;1275;22236;-82
2023/09/29 10:27:44;;;;;;;51.60;10.20;;;;;;;26.03;53.77;99422.43;136916;1275;22257;-82
2023/09/29 10:30:49;;;;;;;16.60;6.80;;;;;;;26.07;52.68;99427.83;137306;1275;22203;-81
2023/09/29 10:33:52;;;;;;;13.80;6.10;;;;;;;26.08;49.50;99423.69;137353;1275;22247;-82
2023/09/29 10:36:54;;;;;;;10.00;7.00;;;;;;;26.12;48.36;99421.57;137343;1275;22809;-82
2023/09/29 10:39:56;;;;;;;15.50;6.30;;;;;;;26.17;48.24;99419.19;137300;1274;22255;-81
2023/09/29 10:43:01;;;;;;;13.50;6.10;;;;;;;26.22;47.25;99414.16;137376;1275;22608;-82
2023/09/29 10:46:03;;;;;;;11.60;5.80;;;;;;;26.32;47.34;99410.54;137380;1275;22275;-83
2023/09/29 10:49:04;;;;;;;19.70;6.60;;;;;;;26.34;46.59;99398.31;137421;1268;22220;-80
2023/09/29 10:52:09;;;;;;;36.90;8.20;;;;;;;26.38;47.42;99398.70;137466;1275;22242;-82
2023/09/29 10:55:10;;;;;;;18.80;7.50;;;;;;;26.55;45.72;99390.60;137294;1275;22202;-82
2023/09/29 10:58:11;;;;;;;14.40;7.10;;;;;;;26.63;42.24;99388.98;137393;1275;22180;-81
2023/09/29 11:01:13;;;;;;;24.10;7.10;;;;;;;26.70;42.55;99383.84;137390;1275;22357;-82
2023/09/29 11:04:14;;;;;;;13.50;7.30;;;;;;;26.76;42.02;99380.92;137248;1275;22248;-83
2023/09/29 11:07:16;;;;;;;31.70;6.60;;;;;;;26.80;42.04;99378.76;137365;1275;22546;-83
2023/09/29 11:10:18;;;;;;;19.60;6.60;;;;;;;26.85;41.52;99375.30;136800;1275;22245;-81
2023/09/29 11:13:19;;;;;;;11.90;5.70;;;;;;;26.86;40.54;99377.07;137372;1274;22636;-81
2023/09/29 11:16:24;;;;;;;16.00;5.30;;;;;;;26.88;40.94;99375.36;137230;1274;22250;-80
2023/09/29 11:19:30;;;;;;;11.00;5.90;;;;;;;26.90;41.21;99377.23;137462;1274;22295;-79
2023/09/29 11:22:31;;;;;;;10.70;6.00;;;;;;;26.88;40.77;99368.75;137436;1274;22817;-80
2023/09/29 11:25:33;;;;;;;142.70;13.00;;;;;;;26.85;41.16;99367.11;137481;1274;22326;-79
2023/09/29 11:28:34;;;;;;;18.20;6.30;;;;;;;26.80;40.87;99366.45;137342;1274;24239;-79
2023/09/29 11:31:38;;;;;;;40.30;7.20;;;;;;;26.81;40.16;99362.67;137369;1274;22152;-79
2023/09/29 11:34:39;;;;;;;21.80;6.50;;;;;;;26.79;39.28;99357.20;137354;1274;22222;-78
2023/09/29 11:37:41;;;;;;;15.40;6.20;;;;;;;26.81;39.58;99354.41;136964;1274;22537;-80
2023/09/29 11:40:42;;;;;;;14.40;6.20;;;;;;;26.90;39.61;99357.23;137092;1274;22584;-80
2023/09/29 11:43:44;;;;;;;10.60;6.20;;;;;;;26.95;39.41;99352.36;137238;1267;22244;-80
2023/09/29 11:46:45;;;;;;;10.10;5.30;;;;;;;26.96;40.00;99349.65;137262;1274;22620;-80
2023/09/29 11:49:50;;;;;;;11.00;5.10;;;;;;;26.91;39.36;99346.48;137263;1274;22095;-80
2023/09/29 11:52:51;;;;;;;13.50;5.80;;;;;;;26.90;38.72;99344.05;137275;1274;22275;-79
2023/09/29 11:55:52;;;;;;;31.00;7.80;;;;;;;26.88;38.35;99341.61;136999;1274;22545;-80
2023/09/29 11:58:54;;;;;;;47.30;8.10;;;;;;;26.84;38.13;99338.77;136901;1274;22244;-81
2023/09/29 12:01:55;;;;;;;12.30;6.30;;;;;;;26.82;38.46;99329.39;137272;1274;22237;-80
2023/09/29 12:04:56;;;;;;;11.00;5.70;;;;;;;26.88;38.51;99333.25;137248;1274;22615;-80
2023/09/29 12:08:02;;;;;;;21.70;5.70;;;;;;;26.87;38.33;99327.20;137246;1274;22224;-79
2023/09/29 12:11:05;;;;;;;26.40;6.20;;;;;;;26.77;37.95;99321.05;137224;1274;22196;-80
2023/09/29 12:14:08;;;;;;;13.70;6.70;;;;;;;26.70;38.07;99322.48;137218;1274;22829;-78
2023/09/29 12:17:09;;;;;;;14.40;5.60;;;;;;;26.68;38.38;99318.98;137192;1274;22148;-79
2023/09/29 12:20:14;;;;;;;15.90;6.10;;;;;;;26.68;38.12;99314.70;137190;1274;22157;-79
2023/09/29 12:23:18;;;;;;;82.70;8.20;;;;;;;26.65;38.36;99311.43;137225;1274;22324;-79
2023/09/29 12:26:22;;;;;;;10.20;5.90;;;;;;;26.65;38.61;99311.79;137168;1274;22187;-80
2023/09/29 12:29:23;;;;;;;25.40;7.10;;;;;;;26.61;38.68;99305.89;137188;1274;22288;-81
2023/09/29 12:32:24;;;;;;;7.80;5.40;;;;;;;26.62;38.30;99302.98;137183;1274;22907;-79
2023/09/29 12:35:29;;;;;;;11.40;5.50;;;;;;;26.54;37.15;99303.18;137181;1274;22325;-82
2023/09/29 12:38:30;;;;;;;12.80;5.40;;;;;;;26.46;38.02;99299.64;137219;1274;22884;-81
2023/09/29 12:41:32;;;;;;;10.90;5.80;;;;;;;26.50;38.43;99298.71;137254;1274;22345;-82
2023/09/29 12:44:33;;;;;;;21.70;6.20;;;;;;;26.53;38.54;99296.09;137272;1275;22102;-82
2023/09/29 12:47:34;;;;;;;33.50;8.90;;;;;;;26.56;38.07;99289.36;137239;1275;22308;-81
2023/09/29 12:50:38;;;;;;;17.20;5.70;;;;;;;26.65;38.56;99289.83;137258;1271;22217;-82
2023/09/29 12:53:40;;;;;;;20.20;6.70;;;;;;;26.68;38.28;99283.46;137143;1275;22106;-81
2023/09/29 12:56:41;;;;;;;18.80;6.20;;;;;;;26.67;37.35;99284.41;137197;1274;22335;-81
2023/09/29 12:59:43;;;;;;;9.90;4.90;;;;;;;26.61;37.78;99279.50;137255;1274;22437;-81
2023/09/29 13:02:44;;;;;;;13.40;6.10;;;;;;;26.58;37.68;99277.33;137222;1275;22298;-82
2023/09/29 13:05:46;;;;;;;12.40;5.40;;;;;;;26.61;38.32;99275.73;137249;1275;22249;-81
2023/09/29 13:08:47;;;;;;;16.20;6.00;;;;;;;26.67;38.12;99274.91;137312;1275;22339;-82
2023/09/29 13:11:48;;;;;;;20.00;5.90;;;;;;;26.73;38.32;99273.79;137095;1274;22561;-81
2023/09/29 13:14:50;;;;;;;34.90;7.40;;;;;;;26.70;37.63;99273.38;137079;1274;22431;-82
2023/09/29 13:17:51;;;;;;;23.80;6.50;;;;;;;26.62;37.75;99270.50;137282;1275;22245;-81
2023/09/29 13:20:52;;;;;;;7.10;5.10;;;;;;;26.57;38.13;99264.50;137333;1275;22102;-82
2023/09/29 13:23:53;;;;;;;12.30;5.80;;;;;;;26.52;38.17;99257.43;137295;1275;22241;-82
2023/09/29 13:26:55;;;;;;;12.90;5.70;;;;;;;26.48;38.39;99258.52;136780;1268;22197;-81
2023/09/29 13:29:56;;;;;;;8.50;5.30;;;;;;;26.53;38.12;99260.41;137297;1275;22151;-81
2023/09/29 13:32:57;;;;;;;14.30;5.50;;;;;;;26.49;37.21;99255.23;137307;1274;22154;-81
2023/09/29 13:35:58;;;;;;;11.10;6.30;;;;;;;26.46;37.65;99250.92;137335;1275;22342;-80
2023/09/29 13:38:59;;;;;;;7.50;5.10;;;;;;;26.47;38.01;99245.16;137277;1275;22437;-80
2023/09/29 13:42:00;;;;;;;9.80;5.70;;;;;;;26.48;38.36;99243.36;137289;1263;22185;-81
2023/09/29 13:45:01;;;;;;;73.70;9.80;;;;;;;26.48;38.29;99241.19;137185;1275;22195;-81
2023/09/29 13:48:03;;;;;;;43.20;7.30;;;;;;;26.46;38.28;99237.52;137281;1274;22666;-81
2023/09/29 13:51:04;;;;;;;11.70;6.40;;;;;;;26.43;38.21;99232.48;137242;1275;22226;-81
2023/09/29 13:54:05;;;;;;;13.50;6.10;;;;;;;26.37;38.02;99234.55;136824;1253;22529;-81
2023/09/29 13:57:06;;;;;;;14.30;5.50;;;;;;;26.32;37.72;99236.55;137233;1274;22378;-80
2023/09/29 14:00:08;;;;;;;11.10;5.80;;;;;;;26.26;37.87;99232.56;137259;1275;22571;-81
2023/09/29 14:03:14;;;;;;;21.50;6.40;;;;;;;26.25;38.51;99232.76;136604;1275;22589;-82
2023/09/29 14:06:17;;;;;;;17.50;5.70;;;;;;;26.24;38.60;99228.52;136834;1275;22558;-80
2023/09/29 14:09:21;;;;;;;16.20;6.40;;;;;;;26.23;38.83;99230.71;137015;1275;22674;-81
2023/09/29 14:12:22;;;;;;;11.20;5.90;;;;;;;26.21;37.90;99230.29;136869;1275;22594;-81
2023/09/29 14:15:24;;;;;;;11.90;6.10;;;;;;;26.16;38.30;99227.86;135920;1274;22533;-81
2023/09/29 14:18:25;;;;;;;12.50;5.70;;;;;;;26.15;38.15;99228.27;136329;1271;22579;-81
2023/09/29 14:21:26;;;;;;;13.20;6.20;;;;;;;26.10;38.47;99225.98;136204;1275;22081;-81